sensor_id;sensor_type;location;lat;lon;timestamp;P1;durP1;ratioP1;P2;durP2;ratioP2
75035;SDS011;64247;51.540;5.854;2023-05-09T00:00:23;66.88;;;25.20;;
75035;SDS011;64247;51.540;5.854;2023-05-09T00:02:24;73.20;;;27.92;;
75035;SDS011;64247;51.540;5.854;2023-05-09T00:04:25;70.45;;;28.40;;
75035;SDS011;64247;51.540;5.854;2023-05-09T00:06:26;65.20;;;25.80;;
75035;SDS011;64247;51.540;5.854;2023-05-09T00:08:27;66.22;;;25.35;;
75035;SDS011;64247;51.540;5.854;2023-05-09T00:10:27;61.75;;;25.23;;
75035;SDS011;64247;51.540;5.854;2023-05-09T00:12:28;65.35;;;27.13;;
75035;SDS011;64247;51.540;5.854;2023-05-09T00:14:30;64.35;;;26.30;;
75035;SDS011;64247;51.540;5.854;2023-05-09T00:16:32;64.90;;;27.88;;
75035;SDS011;64247;51.540;5.854;2023-05-09T00:18:33;70.13;;;27.13;;
75035;SDS011;64247;51.540;5.854;2023-05-09T00:20:35;72.15;;;27.02;;
75035;SDS011;64247;51.540;5.854;2023-05-09T00:22:37;63.05;;;25.42;;
75035;SDS011;64247;51.540;5.854;2023-05-09T00:24:42;64.45;;;26.08;;
75035;SDS011;64247;51.540;5.854;2023-05-09T00:26:43;61.78;;;25.92;;
75035;SDS011;64247;51.540;5.854;2023-05-09T00:28:44;66.40;;;27.45;;
75035;SDS011;64247;51.540;5.854;2023-05-09T00:30:44;74.10;;;28.73;;
75035;SDS011;64247;51.540;5.854;2023-05-09T00:32:45;66.78;;;25.52;;
75035;SDS011;64247;51.540;5.854;2023-05-09T00:34:46;72.53;;;27.95;;
75035;SDS011;64247;51.540;5.854;2023-05-09T00:36:47;66.95;;;27.00;;
75035;SDS011;64247;51.540;5.854;2023-05-09T00:38:49;76.45;;;30.70;;
75035;SDS011;64247;51.540;5.854;2023-05-09T00:40:50;70.40;;;28.17;;
75035;SDS011;64247;51.540;5.854;2023-05-09T00:42:51;80.07;;;32.80;;
75035;SDS011;64247;51.540;5.854;2023-05-09T00:44:52;64.30;;;25.92;;
75035;SDS011;64247;51.540;5.854;2023-05-09T00:46:53;71.90;;;27.33;;
75035;SDS011;64247;51.540;5.854;2023-05-09T00:48:54;66.20;;;25.67;;
75035;SDS011;64247;51.540;5.854;2023-05-09T00:50:56;63.17;;;23.33;;
75035;SDS011;64247;51.540;5.854;2023-05-09T00:52:57;66.20;;;29.20;;
75035;SDS011;64247;51.540;5.854;2023-05-09T00:54:58;64.05;;;26.17;;
75035;SDS011;64247;51.540;5.854;2023-05-09T00:57:01;66.00;;;27.17;;
75035;SDS011;64247;51.540;5.854;2023-05-09T00:59:02;74.18;;;28.85;;
75035;SDS011;64247;51.540;5.854;2023-05-09T01:01:03;67.45;;;27.02;;
75035;SDS011;64247;51.540;5.854;2023-05-09T01:03:04;67.10;;;28.20;;
75035;SDS011;64247;51.540;5.854;2023-05-09T01:05:06;71.30;;;27.63;;
75035;SDS011;64247;51.540;5.854;2023-05-09T01:07:10;61.83;;;23.67;;
75035;SDS011;64247;51.540;5.854;2023-05-09T01:15:35;63.08;;;25.15;;
75035;SDS011;64247;51.540;5.854;2023-05-09T01:20:32;67.53;;;24.90;;
75035;SDS011;64247;51.540;5.854;2023-05-09T01:23:03;63.58;;;24.92;;
75035;SDS011;64247;51.540;5.854;2023-05-09T01:32:14;65.00;;;22.85;;
75035;SDS011;64247;51.540;5.854;2023-05-09T01:34:39;55.67;;;21.77;;
75035;SDS011;64247;51.540;5.854;2023-05-09T01:36:44;52.25;;;23.48;;
75035;SDS011;64247;51.540;5.854;2023-05-09T01:39:52;61.75;;;24.27;;
75035;SDS011;64247;51.540;5.854;2023-05-09T01:42:00;56.63;;;22.42;;
75035;SDS011;64247;51.540;5.854;2023-05-09T01:44:28;50.42;;;21.27;;
75035;SDS011;64247;51.540;5.854;2023-05-09T01:46:57;55.92;;;22.55;;
75035;SDS011;64247;51.540;5.854;2023-05-09T01:50:00;51.67;;;21.08;;
75035;SDS011;64247;51.540;5.854;2023-05-09T01:52:07;56.55;;;21.33;;
75035;SDS011;64247;51.540;5.854;2023-05-09T01:54:14;54.55;;;19.20;;
75035;SDS011;64247;51.540;5.854;2023-05-09T01:56:18;52.50;;;20.30;;
75035;SDS011;64247;51.540;5.854;2023-05-09T01:58:22;55.47;;;20.92;;
75035;SDS011;64247;51.540;5.854;2023-05-09T02:00:26;56.40;;;20.25;;
75035;SDS011;64247;51.540;5.854;2023-05-09T02:02:28;53.97;;;21.15;;
75035;SDS011;64247;51.540;5.854;2023-05-09T02:04:30;55.80;;;22.02;;
75035;SDS011;64247;51.540;5.854;2023-05-09T02:06:33;50.38;;;22.88;;
75035;SDS011;64247;51.540;5.854;2023-05-09T02:08:36;47.75;;;20.08;;
75035;SDS011;64247;51.540;5.854;2023-05-09T02:10:37;53.22;;;20.00;;
75035;SDS011;64247;51.540;5.854;2023-05-09T02:12:40;50.30;;;19.67;;
75035;SDS011;64247;51.540;5.854;2023-05-09T02:14:41;52.97;;;21.23;;
75035;SDS011;64247;51.540;5.854;2023-05-09T02:16:42;48.22;;;22.67;;
75035;SDS011;64247;51.540;5.854;2023-05-09T02:18:43;52.30;;;22.88;;
75035;SDS011;64247;51.540;5.854;2023-05-09T02:20:44;45.75;;;19.13;;
75035;SDS011;64247;51.540;5.854;2023-05-09T02:22:45;49.88;;;19.95;;
75035;SDS011;64247;51.540;5.854;2023-05-09T02:24:47;46.53;;;19.55;;
75035;SDS011;64247;51.540;5.854;2023-05-09T02:26:48;46.22;;;19.13;;
75035;SDS011;64247;51.540;5.854;2023-05-09T02:28:49;45.70;;;20.50;;
75035;SDS011;64247;51.540;5.854;2023-05-09T02:30:52;40.17;;;18.20;;
75035;SDS011;64247;51.540;5.854;2023-05-09T02:33:01;44.40;;;18.45;;
75035;SDS011;64247;51.540;5.854;2023-05-09T02:35:06;44.47;;;18.02;;
75035;SDS011;64247;51.540;5.854;2023-05-09T02:37:09;44.42;;;18.35;;
75035;SDS011;64247;51.540;5.854;2023-05-09T02:39:11;38.10;;;19.08;;
75035;SDS011;64247;51.540;5.854;2023-05-09T02:41:13;39.40;;;17.83;;
75035;SDS011;64247;51.540;5.854;2023-05-09T02:43:15;40.92;;;17.90;;
75035;SDS011;64247;51.540;5.854;2023-05-09T02:45:16;34.15;;;16.00;;
75035;SDS011;64247;51.540;5.854;2023-05-09T02:47:17;37.50;;;17.38;;
75035;SDS011;64247;51.540;5.854;2023-05-09T02:49:18;39.38;;;18.60;;
75035;SDS011;64247;51.540;5.854;2023-05-09T02:51:19;42.35;;;18.92;;
75035;SDS011;64247;51.540;5.854;2023-05-09T02:53:20;37.63;;;16.77;;
75035;SDS011;64247;51.540;5.854;2023-05-09T02:55:21;39.78;;;17.98;;
75035;SDS011;64247;51.540;5.854;2023-05-09T02:57:21;41.65;;;17.70;;
75035;SDS011;64247;51.540;5.854;2023-05-09T02:59:22;45.38;;;19.02;;
75035;SDS011;64247;51.540;5.854;2023-05-09T03:01:23;40.63;;;17.95;;
75035;SDS011;64247;51.540;5.854;2023-05-09T03:03:24;40.83;;;16.45;;
75035;SDS011;64247;51.540;5.854;2023-05-09T03:05:25;45.70;;;19.10;;
75035;SDS011;64247;51.540;5.854;2023-05-09T03:07:26;46.08;;;20.85;;
75035;SDS011;64247;51.540;5.854;2023-05-09T03:09:27;45.92;;;19.42;;
75035;SDS011;64247;51.540;5.854;2023-05-09T03:11:28;42.95;;;19.25;;
75035;SDS011;64247;51.540;5.854;2023-05-09T03:13:30;49.78;;;19.88;;
75035;SDS011;64247;51.540;5.854;2023-05-09T03:15:31;45.35;;;19.90;;
75035;SDS011;64247;51.540;5.854;2023-05-09T03:17:33;47.60;;;19.75;;
75035;SDS011;64247;51.540;5.854;2023-05-09T03:19:34;45.65;;;19.92;;
75035;SDS011;64247;51.540;5.854;2023-05-09T03:21:35;40.78;;;18.48;;
75035;SDS011;64247;51.540;5.854;2023-05-09T03:23:36;45.47;;;19.25;;
75035;SDS011;64247;51.540;5.854;2023-05-09T03:25:38;41.75;;;20.15;;
75035;SDS011;64247;51.540;5.854;2023-05-09T03:27:39;45.67;;;19.27;;
75035;SDS011;64247;51.540;5.854;2023-05-09T03:29:44;45.15;;;19.33;;
75035;SDS011;64247;51.540;5.854;2023-05-09T03:31:46;60.45;;;20.98;;
75035;SDS011;64247;51.540;5.854;2023-05-09T03:33:47;40.33;;;17.73;;
75035;SDS011;64247;51.540;5.854;2023-05-09T03:35:49;46.10;;;18.75;;
75035;SDS011;64247;51.540;5.854;2023-05-09T03:37:51;43.58;;;20.42;;
75035;SDS011;64247;51.540;5.854;2023-05-09T03:39:52;44.95;;;18.73;;
75035;SDS011;64247;51.540;5.854;2023-05-09T03:41:53;44.00;;;19.98;;
75035;SDS011;64247;51.540;5.854;2023-05-09T03:43:54;40.65;;;17.65;;
75035;SDS011;64247;51.540;5.854;2023-05-09T03:45:54;46.70;;;20.25;;
75035;SDS011;64247;51.540;5.854;2023-05-09T03:47:56;43.97;;;19.30;;
75035;SDS011;64247;51.540;5.854;2023-05-09T03:49:57;40.90;;;18.98;;
75035;SDS011;64247;51.540;5.854;2023-05-09T03:51:59;42.38;;;21.23;;
75035;SDS011;64247;51.540;5.854;2023-05-09T03:54:00;44.20;;;19.80;;
75035;SDS011;64247;51.540;5.854;2023-05-09T03:56:02;40.80;;;17.27;;
75035;SDS011;64247;51.540;5.854;2023-05-09T03:58:06;49.83;;;20.27;;
75035;SDS011;64247;51.540;5.854;2023-05-09T04:00:11;41.05;;;18.33;;
75035;SDS011;64247;51.540;5.854;2023-05-09T04:02:18;34.08;;;16.42;;
75035;SDS011;64247;51.540;5.854;2023-05-09T04:04:20;40.60;;;18.23;;
75035;SDS011;64247;51.540;5.854;2023-05-09T04:06:22;32.40;;;16.48;;
75035;SDS011;64247;51.540;5.854;2023-05-09T04:08:23;38.35;;;17.73;;
75035;SDS011;64247;51.540;5.854;2023-05-09T04:10:25;42.30;;;17.98;;
75035;SDS011;64247;51.540;5.854;2023-05-09T04:12:26;38.22;;;17.38;;
75035;SDS011;64247;51.540;5.854;2023-05-09T04:14:27;40.17;;;18.35;;
75035;SDS011;64247;51.540;5.854;2023-05-09T04:16:29;36.17;;;18.20;;
75035;SDS011;64247;51.540;5.854;2023-05-09T04:18:29;37.45;;;16.95;;
75035;SDS011;64247;51.540;5.854;2023-05-09T04:20:31;37.42;;;16.83;;
75035;SDS011;64247;51.540;5.854;2023-05-09T04:22:32;34.10;;;16.55;;
75035;SDS011;64247;51.540;5.854;2023-05-09T04:24:33;35.65;;;15.43;;
75035;SDS011;64247;51.540;5.854;2023-05-09T04:26:34;30.60;;;14.85;;
75035;SDS011;64247;51.540;5.854;2023-05-09T04:28:38;34.50;;;16.08;;
75035;SDS011;64247;51.540;5.854;2023-05-09T04:30:39;28.45;;;14.07;;
75035;SDS011;64247;51.540;5.854;2023-05-09T04:32:40;33.85;;;15.98;;
75035;SDS011;64247;51.540;5.854;2023-05-09T04:34:45;30.38;;;13.65;;
75035;SDS011;64247;51.540;5.854;2023-05-09T04:38:53;28.60;;;14.10;;
75035;SDS011;64247;51.540;5.854;2023-05-09T04:40:58;28.13;;;13.10;;
75035;SDS011;64247;51.540;5.854;2023-05-09T04:42:59;23.85;;;14.10;;
75035;SDS011;64247;51.540;5.854;2023-05-09T04:45:02;27.17;;;13.50;;
75035;SDS011;64247;51.540;5.854;2023-05-09T04:47:05;30.17;;;15.20;;
75035;SDS011;64247;51.540;5.854;2023-05-09T04:49:06;29.40;;;14.18;;
75035;SDS011;64247;51.540;5.854;2023-05-09T04:51:06;29.13;;;16.05;;
75035;SDS011;64247;51.540;5.854;2023-05-09T04:53:07;28.23;;;13.30;;
75035;SDS011;64247;51.540;5.854;2023-05-09T04:55:09;29.20;;;13.68;;
75035;SDS011;64247;51.540;5.854;2023-05-09T04:57:14;25.02;;;12.63;;
75035;SDS011;64247;51.540;5.854;2023-05-09T04:59:16;23.10;;;12.77;;
75035;SDS011;64247;51.540;5.854;2023-05-09T05:01:17;27.83;;;14.40;;
75035;SDS011;64247;51.540;5.854;2023-05-09T05:03:18;25.65;;;13.38;;
75035;SDS011;64247;51.540;5.854;2023-05-09T05:05:19;27.85;;;13.23;;
75035;SDS011;64247;51.540;5.854;2023-05-09T05:07:20;23.92;;;12.70;;
75035;SDS011;64247;51.540;5.854;2023-05-09T05:09:21;23.17;;;12.13;;
75035;SDS011;64247;51.540;5.854;2023-05-09T05:11:22;30.17;;;14.18;;
75035;SDS011;64247;51.540;5.854;2023-05-09T05:13:23;26.83;;;13.07;;
75035;SDS011;64247;51.540;5.854;2023-05-09T05:15:28;24.83;;;13.80;;
75035;SDS011;64247;51.540;5.854;2023-05-09T05:17:29;25.25;;;14.00;;
75035;SDS011;64247;51.540;5.854;2023-05-09T05:19:33;25.23;;;12.88;;
75035;SDS011;64247;51.540;5.854;2023-05-09T05:21:35;29.17;;;13.27;;
75035;SDS011;64247;51.540;5.854;2023-05-09T05:23:36;23.85;;;12.43;;
75035;SDS011;64247;51.540;5.854;2023-05-09T05:25:37;24.83;;;12.52;;
75035;SDS011;64247;51.540;5.854;2023-05-09T05:27:38;22.58;;;12.43;;
75035;SDS011;64247;51.540;5.854;2023-05-09T05:29:41;24.85;;;14.90;;
75035;SDS011;64247;51.540;5.854;2023-05-09T05:31:41;24.63;;;13.35;;
75035;SDS011;64247;51.540;5.854;2023-05-09T05:33:42;22.23;;;12.18;;
75035;SDS011;64247;51.540;5.854;2023-05-09T05:35:43;23.52;;;12.85;;
75035;SDS011;64247;51.540;5.854;2023-05-09T05:37:44;22.75;;;13.70;;
75035;SDS011;64247;51.540;5.854;2023-05-09T05:39:45;20.67;;;12.18;;
75035;SDS011;64247;51.540;5.854;2023-05-09T05:41:47;27.70;;;14.77;;
75035;SDS011;64247;51.540;5.854;2023-05-09T05:43:47;24.77;;;13.77;;
75035;SDS011;64247;51.540;5.854;2023-05-09T05:45:49;24.58;;;14.45;;
75035;SDS011;64247;51.540;5.854;2023-05-09T05:47:53;25.23;;;13.82;;
75035;SDS011;64247;51.540;5.854;2023-05-09T05:49:56;26.85;;;13.85;;
75035;SDS011;64247;51.540;5.854;2023-05-09T05:51:58;29.85;;;15.32;;
75035;SDS011;64247;51.540;5.854;2023-05-09T05:53:59;26.75;;;14.13;;
75035;SDS011;64247;51.540;5.854;2023-05-09T05:56:00;30.45;;;14.10;;
75035;SDS011;64247;51.540;5.854;2023-05-09T05:58:02;22.65;;;12.50;;
75035;SDS011;64247;51.540;5.854;2023-05-09T06:00:04;24.75;;;13.98;;
75035;SDS011;64247;51.540;5.854;2023-05-09T06:02:29;28.73;;;13.75;;
75035;SDS011;64247;51.540;5.854;2023-05-09T06:04:30;28.33;;;13.75;;
75035;SDS011;64247;51.540;5.854;2023-05-09T06:06:32;24.00;;;13.95;;
75035;SDS011;64247;51.540;5.854;2023-05-09T06:08:34;26.80;;;13.88;;
75035;SDS011;64247;51.540;5.854;2023-05-09T06:10:35;25.15;;;12.07;;
75035;SDS011;64247;51.540;5.854;2023-05-09T06:12:36;23.83;;;12.68;;
75035;SDS011;64247;51.540;5.854;2023-05-09T06:14:37;26.85;;;13.75;;
75035;SDS011;64247;51.540;5.854;2023-05-09T06:16:38;26.10;;;13.77;;
75035;SDS011;64247;51.540;5.854;2023-05-09T06:18:39;25.83;;;13.43;;
75035;SDS011;64247;51.540;5.854;2023-05-09T06:20:40;23.77;;;13.45;;
75035;SDS011;64247;51.540;5.854;2023-05-09T06:22:41;26.48;;;14.00;;
75035;SDS011;64247;51.540;5.854;2023-05-09T06:24:42;23.20;;;13.45;;
75035;SDS011;64247;51.540;5.854;2023-05-09T06:26:43;24.65;;;13.68;;
75035;SDS011;64247;51.540;5.854;2023-05-09T06:28:45;22.60;;;11.90;;
75035;SDS011;64247;51.540;5.854;2023-05-09T06:30:46;15.93;;;9.80;;
75035;SDS011;64247;51.540;5.854;2023-05-09T06:32:47;24.52;;;13.27;;
75035;SDS011;64247;51.540;5.854;2023-05-09T06:34:47;26.15;;;12.85;;
75035;SDS011;64247;51.540;5.854;2023-05-09T06:36:48;23.40;;;13.07;;
75035;SDS011;64247;51.540;5.854;2023-05-09T06:38:49;26.52;;;14.55;;
75035;SDS011;64247;51.540;5.854;2023-05-09T06:40:50;18.10;;;11.05;;
75035;SDS011;64247;51.540;5.854;2023-05-09T06:42:51;20.58;;;11.57;;
75035;SDS011;64247;51.540;5.854;2023-05-09T06:44:52;23.02;;;13.13;;
75035;SDS011;64247;51.540;5.854;2023-05-09T06:46:53;20.65;;;11.80;;
75035;SDS011;64247;51.540;5.854;2023-05-09T06:48:54;21.02;;;12.27;;
75035;SDS011;64247;51.540;5.854;2023-05-09T06:50:55;24.38;;;12.18;;
75035;SDS011;64247;51.540;5.854;2023-05-09T06:52:56;22.75;;;13.35;;
75035;SDS011;64247;51.540;5.854;2023-05-09T06:54:57;20.13;;;12.65;;
75035;SDS011;64247;51.540;5.854;2023-05-09T06:56:58;21.90;;;14.65;;
75035;SDS011;64247;51.540;5.854;2023-05-09T06:58:59;22.00;;;11.30;;
75035;SDS011;64247;51.540;5.854;2023-05-09T07:01:00;18.05;;;11.20;;
75035;SDS011;64247;51.540;5.854;2023-05-09T07:03:01;28.38;;;11.05;;
75035;SDS011;64247;51.540;5.854;2023-05-09T07:05:02;20.45;;;12.23;;
75035;SDS011;64247;51.540;5.854;2023-05-09T07:07:03;18.13;;;11.20;;
75035;SDS011;64247;51.540;5.854;2023-05-09T07:09:04;15.15;;;9.63;;
75035;SDS011;64247;51.540;5.854;2023-05-09T07:11:05;18.88;;;11.38;;
75035;SDS011;64247;51.540;5.854;2023-05-09T07:13:05;18.15;;;13.77;;
75035;SDS011;64247;51.540;5.854;2023-05-09T07:15:06;16.10;;;9.98;;
75035;SDS011;64247;51.540;5.854;2023-05-09T07:17:08;19.13;;;11.77;;
75035;SDS011;64247;51.540;5.854;2023-05-09T07:19:09;17.30;;;10.70;;
75035;SDS011;64247;51.540;5.854;2023-05-09T07:21:10;15.32;;;9.68;;
75035;SDS011;64247;51.540;5.854;2023-05-09T07:23:11;17.30;;;8.98;;
75035;SDS011;64247;51.540;5.854;2023-05-09T07:25:12;15.55;;;9.05;;
75035;SDS011;64247;51.540;5.854;2023-05-09T07:27:13;16.27;;;10.93;;
75035;SDS011;64247;51.540;5.854;2023-05-09T07:29:14;21.63;;;12.15;;
75035;SDS011;64247;51.540;5.854;2023-05-09T07:31:15;14.52;;;10.30;;
75035;SDS011;64247;51.540;5.854;2023-05-09T07:33:15;12.80;;;8.13;;
75035;SDS011;64247;51.540;5.854;2023-05-09T07:35:17;15.13;;;9.48;;
75035;SDS011;64247;51.540;5.854;2023-05-09T07:37:19;17.27;;;11.52;;
75035;SDS011;64247;51.540;5.854;2023-05-09T07:39:20;15.73;;;9.30;;
75035;SDS011;64247;51.540;5.854;2023-05-09T07:41:20;17.42;;;10.20;;
75035;SDS011;64247;51.540;5.854;2023-05-09T07:43:21;17.67;;;10.93;;
75035;SDS011;64247;51.540;5.854;2023-05-09T07:45:22;15.80;;;12.35;;
75035;SDS011;64247;51.540;5.854;2023-05-09T07:47:23;19.42;;;11.73;;
75035;SDS011;64247;51.540;5.854;2023-05-09T07:49:25;17.10;;;11.70;;
75035;SDS011;64247;51.540;5.854;2023-05-09T07:51:26;19.17;;;10.10;;
75035;SDS011;64247;51.540;5.854;2023-05-09T07:53:27;15.38;;;11.68;;
75035;SDS011;64247;51.540;5.854;2023-05-09T07:55:27;17.55;;;10.10;;
75035;SDS011;64247;51.540;5.854;2023-05-09T07:57:28;15.70;;;9.20;;
75035;SDS011;64247;51.540;5.854;2023-05-09T07:59:29;14.88;;;11.02;;
75035;SDS011;64247;51.540;5.854;2023-05-09T08:01:30;16.67;;;11.90;;
75035;SDS011;64247;51.540;5.854;2023-05-09T08:03:31;14.05;;;11.38;;
75035;SDS011;64247;51.540;5.854;2023-05-09T08:05:32;14.93;;;9.77;;
75035;SDS011;64247;51.540;5.854;2023-05-09T08:07:32;15.48;;;9.35;;
75035;SDS011;64247;51.540;5.854;2023-05-09T08:09:33;11.98;;;7.65;;
75035;SDS011;64247;51.540;5.854;2023-05-09T08:11:34;11.13;;;7.43;;
75035;SDS011;64247;51.540;5.854;2023-05-09T08:13:36;17.50;;;10.60;;
75035;SDS011;64247;51.540;5.854;2023-05-09T08:15:37;13.15;;;8.07;;
75035;SDS011;64247;51.540;5.854;2023-05-09T08:17:37;13.80;;;9.30;;
75035;SDS011;64247;51.540;5.854;2023-05-09T08:19:38;8.70;;;5.55;;
75035;SDS011;64247;51.540;5.854;2023-05-09T08:21:39;9.80;;;7.38;;
75035;SDS011;64247;51.540;5.854;2023-05-09T08:23:40;12.35;;;10.43;;
75035;SDS011;64247;51.540;5.854;2023-05-09T08:25:41;11.15;;;8.93;;
75035;SDS011;64247;51.540;5.854;2023-05-09T08:27:42;11.32;;;8.65;;
75035;SDS011;64247;51.540;5.854;2023-05-09T08:29:43;11.73;;;8.43;;
75035;SDS011;64247;51.540;5.854;2023-05-09T08:31:44;12.40;;;8.60;;
75035;SDS011;64247;51.540;5.854;2023-05-09T08:33:45;10.65;;;8.77;;
75035;SDS011;64247;51.540;5.854;2023-05-09T08:35:50;11.05;;;8.20;;
75035;SDS011;64247;51.540;5.854;2023-05-09T08:37:53;7.45;;;6.65;;
75035;SDS011;64247;51.540;5.854;2023-05-09T08:39:54;17.63;;;8.02;;
75035;SDS011;64247;51.540;5.854;2023-05-09T08:41:57;12.15;;;7.82;;
75035;SDS011;64247;51.540;5.854;2023-05-09T08:43:59;9.35;;;7.45;;
75035;SDS011;64247;51.540;5.854;2023-05-09T08:46:02;10.00;;;7.05;;
75035;SDS011;64247;51.540;5.854;2023-05-09T08:48:08;10.32;;;7.68;;
75035;SDS011;64247;51.540;5.854;2023-05-09T08:50:09;9.98;;;7.90;;
75035;SDS011;64247;51.540;5.854;2023-05-09T08:52:14;7.88;;;6.35;;
75035;SDS011;64247;51.540;5.854;2023-05-09T08:54:15;9.93;;;7.43;;
75035;SDS011;64247;51.540;5.854;2023-05-09T08:56:18;9.05;;;6.97;;
75035;SDS011;64247;51.540;5.854;2023-05-09T08:58:19;6.72;;;5.80;;
75035;SDS011;64247;51.540;5.854;2023-05-09T09:00:21;6.32;;;5.20;;
75035;SDS011;64247;51.540;5.854;2023-05-09T09:02:24;6.40;;;4.07;;
75035;SDS011;64247;51.540;5.854;2023-05-09T09:04:25;5.28;;;4.78;;
75035;SDS011;64247;51.540;5.854;2023-05-09T09:06:27;5.05;;;3.63;;
75035;SDS011;64247;51.540;5.854;2023-05-09T09:08:30;5.93;;;5.25;;
75035;SDS011;64247;51.540;5.854;2023-05-09T09:10:33;6.05;;;5.10;;
75035;SDS011;64247;51.540;5.854;2023-05-09T09:12:34;6.00;;;5.05;;
75035;SDS011;64247;51.540;5.854;2023-05-09T09:14:38;5.78;;;5.20;;
75035;SDS011;64247;51.540;5.854;2023-05-09T09:16:46;5.30;;;4.47;;
75035;SDS011;64247;51.540;5.854;2023-05-09T09:18:51;5.90;;;5.28;;
75035;SDS011;64247;51.540;5.854;2023-05-09T09:21:08;5.78;;;5.10;;
75035;SDS011;64247;51.540;5.854;2023-05-09T09:23:11;6.47;;;5.88;;
75035;SDS011;64247;51.540;5.854;2023-05-09T09:25:19;6.28;;;5.68;;
75035;SDS011;64247;51.540;5.854;2023-05-09T09:27:20;7.15;;;4.03;;
75035;SDS011;64247;51.540;5.854;2023-05-09T09:29:21;6.78;;;5.63;;
75035;SDS011;64247;51.540;5.854;2023-05-09T09:31:26;6.38;;;5.55;;
75035;SDS011;64247;51.540;5.854;2023-05-09T09:33:32;6.95;;;5.57;;
75035;SDS011;64247;51.540;5.854;2023-05-09T09:35:38;7.25;;;4.85;;
75035;SDS011;64247;51.540;5.854;2023-05-09T09:37:41;6.63;;;3.55;;
75035;SDS011;64247;51.540;5.854;2023-05-09T09:39:52;5.82;;;3.83;;
75035;SDS011;64247;51.540;5.854;2023-05-09T09:41:56;7.07;;;6.05;;
75035;SDS011;64247;51.540;5.854;2023-05-09T09:44:17;6.88;;;6.03;;
75035;SDS011;64247;51.540;5.854;2023-05-09T09:46:22;5.68;;;4.85;;
75035;SDS011;64247;51.540;5.854;2023-05-09T09:48:24;6.18;;;5.57;;
75035;SDS011;64247;51.540;5.854;2023-05-09T09:50:26;7.97;;;5.75;;
75035;SDS011;64247;51.540;5.854;2023-05-09T09:52:27;7.70;;;5.45;;
75035;SDS011;64247;51.540;5.854;2023-05-09T09:54:28;6.40;;;5.70;;
75035;SDS011;64247;51.540;5.854;2023-05-09T09:56:37;6.05;;;5.38;;
75035;SDS011;64247;51.540;5.854;2023-05-09T09:59:13;6.53;;;5.20;;
75035;SDS011;64247;51.540;5.854;2023-05-09T10:01:17;4.88;;;3.50;;
75035;SDS011;64247;51.540;5.854;2023-05-09T10:03:17;5.93;;;4.40;;
75035;SDS011;64247;51.540;5.854;2023-05-09T10:05:19;6.60;;;4.95;;
75035;SDS011;64247;51.540;5.854;2023-05-09T10:07:40;9.55;;;4.78;;
75035;SDS011;64247;51.540;5.854;2023-05-09T10:09:41;5.18;;;3.83;;
75035;SDS011;64247;51.540;5.854;2023-05-09T10:11:43;4.88;;;4.43;;
75035;SDS011;64247;51.540;5.854;2023-05-09T10:13:48;5.22;;;4.72;;
75035;SDS011;64247;51.540;5.854;2023-05-09T10:15:50;5.78;;;4.95;;
75035;SDS011;64247;51.540;5.854;2023-05-09T10:17:53;6.22;;;5.00;;
75035;SDS011;64247;51.540;5.854;2023-05-09T10:19:57;6.28;;;4.93;;
75035;SDS011;64247;51.540;5.854;2023-05-09T10:22:04;4.95;;;4.50;;
75035;SDS011;64247;51.540;5.854;2023-05-09T10:24:11;5.35;;;4.05;;
75035;SDS011;64247;51.540;5.854;2023-05-09T10:26:25;4.07;;;3.70;;
75035;SDS011;64247;51.540;5.854;2023-05-09T10:28:34;4.63;;;3.90;;
75035;SDS011;64247;51.540;5.854;2023-05-09T10:30:43;4.20;;;3.80;;
75035;SDS011;64247;51.540;5.854;2023-05-09T10:33:07;4.88;;;4.03;;
75035;SDS011;64247;51.540;5.854;2023-05-09T10:35:10;5.63;;;4.25;;
75035;SDS011;64247;51.540;5.854;2023-05-09T10:37:13;6.03;;;4.82;;
75035;SDS011;64247;51.540;5.854;2023-05-09T10:39:16;5.03;;;4.15;;
75035;SDS011;64247;51.540;5.854;2023-05-09T10:41:18;5.68;;;3.35;;
75035;SDS011;64247;51.540;5.854;2023-05-09T10:43:24;4.63;;;4.20;;
75035;SDS011;64247;51.540;5.854;2023-05-09T10:45:26;4.95;;;2.63;;
75035;SDS011;64247;51.540;5.854;2023-05-09T10:47:27;3.58;;;1.50;;
75035;SDS011;64247;51.540;5.854;2023-05-09T10:49:31;2.28;;;1.90;;
75035;SDS011;64247;51.540;5.854;2023-05-09T10:51:32;2.80;;;2.38;;
75035;SDS011;64247;51.540;5.854;2023-05-09T10:53:40;2.50;;;2.00;;
75035;SDS011;64247;51.540;5.854;2023-05-09T10:55:54;3.65;;;3.13;;
75035;SDS011;64247;51.540;5.854;2023-05-09T10:58:06;3.40;;;2.45;;
75035;SDS011;64247;51.540;5.854;2023-05-09T11:00:40;2.30;;;2.10;;
75035;SDS011;64247;51.540;5.854;2023-05-09T11:02:42;2.67;;;2.30;;
75035;SDS011;64247;51.540;5.854;2023-05-09T11:07:41;3.63;;;2.22;;
75035;SDS011;64247;51.540;5.854;2023-05-09T11:09:42;4.05;;;2.47;;
75035;SDS011;64247;51.540;5.854;2023-05-09T11:11:56;3.83;;;3.15;;
75035;SDS011;64247;51.540;5.854;2023-05-09T11:14:09;3.13;;;2.83;;
75035;SDS011;64247;51.540;5.854;2023-05-09T11:16:56;4.97;;;3.13;;
75035;SDS011;64247;51.540;5.854;2023-05-09T11:19:03;5.55;;;3.47;;
75035;SDS011;64247;51.540;5.854;2023-05-09T11:21:08;3.70;;;3.35;;
75035;SDS011;64247;51.540;5.854;2023-05-09T11:23:08;4.22;;;2.92;;
75035;SDS011;64247;51.540;5.854;2023-05-09T11:25:11;3.58;;;2.22;;
75035;SDS011;64247;51.540;5.854;2023-05-09T11:27:15;4.13;;;3.05;;
75035;SDS011;64247;51.540;5.854;2023-05-09T11:29:19;4.30;;;2.58;;
75035;SDS011;64247;51.540;5.854;2023-05-09T11:31:25;2.97;;;2.67;;
75035;SDS011;64247;51.540;5.854;2023-05-09T11:33:26;4.65;;;3.10;;
75035;SDS011;64247;51.540;5.854;2023-05-09T11:35:29;4.03;;;2.92;;
75035;SDS011;64247;51.540;5.854;2023-05-09T11:37:30;2.97;;;2.67;;
75035;SDS011;64247;51.540;5.854;2023-05-09T11:39:31;5.38;;;2.42;;
75035;SDS011;64247;51.540;5.854;2023-05-09T11:41:39;4.05;;;3.55;;
75035;SDS011;64247;51.540;5.854;2023-05-09T11:43:46;4.25;;;3.70;;
75035;SDS011;64247;51.540;5.854;2023-05-09T11:45:49;3.58;;;3.22;;
75035;SDS011;64247;51.540;5.854;2023-05-09T11:47:50;2.70;;;2.42;;
75035;SDS011;64247;51.540;5.854;2023-05-09T11:49:52;5.20;;;3.63;;
75035;SDS011;64247;51.540;5.854;2023-05-09T11:51:53;4.72;;;3.55;;
75035;SDS011;64247;51.540;5.854;2023-05-09T11:53:53;6.32;;;4.03;;
75035;SDS011;64247;51.540;5.854;2023-05-09T11:55:54;5.95;;;3.70;;
75035;SDS011;64247;51.540;5.854;2023-05-09T11:57:55;6.53;;;4.72;;
75035;SDS011;64247;51.540;5.854;2023-05-09T11:59:58;6.65;;;5.20;;
75035;SDS011;64247;51.540;5.854;2023-05-09T12:02:04;5.70;;;4.10;;
75035;SDS011;64247;51.540;5.854;2023-05-09T12:04:06;6.97;;;4.72;;
75035;SDS011;64247;51.540;5.854;2023-05-09T12:06:08;5.20;;;4.70;;
75035;SDS011;64247;51.540;5.854;2023-05-09T12:08:13;5.22;;;4.15;;
75035;SDS011;64247;51.540;5.854;2023-05-09T12:10:15;6.82;;;5.82;;
75035;SDS011;64247;51.540;5.854;2023-05-09T12:12:20;7.50;;;5.00;;
75035;SDS011;64247;51.540;5.854;2023-05-09T12:14:31;6.43;;;5.35;;
75035;SDS011;64247;51.540;5.854;2023-05-09T12:16:34;8.75;;;6.75;;
75035;SDS011;64247;51.540;5.854;2023-05-09T12:18:35;6.68;;;6.00;;
75035;SDS011;64247;51.540;5.854;2023-05-09T12:20:53;6.38;;;5.68;;
75035;SDS011;64247;51.540;5.854;2023-05-09T12:22:54;7.90;;;5.25;;
75035;SDS011;64247;51.540;5.854;2023-05-09T12:24:56;9.02;;;5.88;;
75035;SDS011;64247;51.540;5.854;2023-05-09T12:27:04;8.63;;;7.00;;
75035;SDS011;64247;51.540;5.854;2023-05-09T12:29:07;8.25;;;6.90;;
75035;SDS011;64247;51.540;5.854;2023-05-09T12:31:08;6.88;;;5.65;;